createdAt,value
2023-04-30T00:02:28.253Z,92.20
2023-04-30T00:04:57.327Z,91.80
2023-04-30T00:07:26.392Z,91.70
2023-04-30T00:09:55.713Z,91.30
2023-04-30T00:12:25.049Z,91.30
2023-04-30T00:14:54.081Z,91.30
2023-04-30T00:17:23.087Z,91.10
2023-04-30T00:19:52.309Z,91.40
2023-04-30T00:22:21.794Z,91.40
2023-04-30T00:24:50.870Z,91.40
2023-04-30T00:27:20.562Z,91.40
2023-04-30T00:29:49.511Z,91.30
2023-04-30T00:32:18.526Z,91.40
2023-04-30T00:34:47.884Z,91.40
2023-04-30T00:37:16.940Z,91.40
2023-04-30T00:39:45.950Z,91.50
2023-04-30T00:42:14.934Z,91.40
2023-04-30T00:44:43.967Z,91.50
2023-04-30T00:47:12.991Z,91.60
2023-04-30T00:49:42.041Z,91.20
2023-04-30T00:52:11.145Z,91.40
2023-04-30T00:54:40.546Z,91.40
2023-04-30T00:57:11.170Z,91.10
2023-04-30T00:59:41.172Z,91.40
2023-04-30T01:02:11.030Z,91.50
2023-04-30T01:04:40.682Z,91.50
2023-04-30T01:07:09.829Z,91.50
2023-04-30T01:09:39.306Z,91.60
2023-04-30T01:12:17.257Z,91.50
2023-04-30T01:15:19.663Z,91.20
2023-04-30T01:18:13.829Z,91.50
2023-04-30T01:21:10.210Z,91.60
2023-04-30T01:24:09.896Z,91.60
2023-04-30T01:27:09.533Z,92.00
2023-04-30T01:29:41.094Z,92.30
2023-04-30T01:32:11.554Z,91.50
2023-04-30T01:34:40.532Z,91.50
2023-04-30T01:37:28.569Z,91.10
2023-04-30T01:40:13.408Z,91.20
2023-04-30T01:42:54.316Z,91.30
2023-04-30T01:45:35.484Z,91.00
2023-04-30T01:48:16.356Z,90.80
2023-04-30T01:51:04.752Z,90.80
2023-04-30T01:53:45.564Z,90.70
2023-04-30T01:56:44.067Z,90.70
2023-04-30T01:59:15.907Z,90.70
2023-04-30T02:01:45.097Z,90.70
2023-04-30T02:04:14.166Z,90.80
2023-04-30T02:06:43.294Z,90.70
2023-04-30T02:09:12.516Z,90.50
2023-04-30T02:11:41.904Z,90.40
2023-04-30T02:14:10.847Z,90.40
2023-04-30T02:16:39.922Z,90.30
2023-04-30T02:19:09.109Z,90.20
2023-04-30T02:21:38.020Z,90.20
2023-04-30T02:24:07.443Z,90.10
2023-04-30T02:26:36.589Z,90.00
2023-04-30T02:29:05.586Z,90.00
2023-04-30T02:31:34.612Z,89.60
2023-04-30T02:34:03.577Z,89.30
2023-04-30T02:36:37.500Z,89.30
2023-04-30T02:39:06.249Z,89.40
2023-04-30T02:41:35.231Z,90.90
2023-04-30T02:44:04.553Z,90.00
2023-04-30T02:46:33.522Z,89.60
2023-04-30T02:49:02.589Z,89.30
2023-04-30T02:51:32.521Z,89.20
2023-04-30T02:54:01.682Z,88.40
2023-04-30T02:56:30.733Z,88.30
2023-04-30T02:58:59.756Z,88.60
2023-04-30T03:01:29.087Z,88.60
2023-04-30T03:03:59.546Z,88.60
2023-04-30T03:06:28.610Z,88.60
2023-04-30T03:08:57.663Z,88.50
2023-04-30T03:11:26.857Z,88.30
2023-04-30T03:13:56.652Z,87.90
2023-04-30T03:16:25.730Z,87.70
2023-04-30T03:18:54.779Z,87.70
2023-04-30T03:21:23.785Z,87.20
2023-04-30T03:23:52.911Z,87.30
2023-04-30T03:26:23.276Z,87.10
2023-04-30T03:28:52.331Z,87.00
2023-04-30T03:31:21.392Z,87.40
2023-04-30T03:33:50.449Z,87.40
2023-04-30T03:36:19.517Z,87.20
2023-04-30T03:38:48.536Z,87.30
2023-04-30T03:41:17.576Z,87.20
2023-04-30T03:43:47.474Z,87.20
2023-04-30T03:46:16.632Z,87.20
2023-04-30T03:48:45.891Z,87.00
2023-04-30T03:51:15.060Z,87.00
2023-04-30T03:53:44.322Z,87.70
2023-04-30T03:56:13.449Z,87.10
2023-04-30T03:58:42.559Z,86.80
2023-04-30T04:01:11.898Z,86.50
2023-04-30T04:03:40.965Z,86.40
2023-04-30T04:06:10.037Z,86.50
2023-04-30T04:08:39.060Z,86.80
2023-04-30T04:11:08.107Z,86.60
2023-04-30T04:13:37.098Z,86.80
2023-04-30T04:16:06.241Z,86.60
2023-04-30T04:18:35.233Z,86.20
2023-04-30T04:21:04.275Z,86.20
2023-04-30T04:23:33.294Z,86.20
2023-04-30T04:26:02.918Z,86.10
2023-04-30T04:28:32.019Z,86.00
2023-04-30T04:31:01.256Z,86.90
2023-04-30T04:33:30.364Z,86.10
2023-04-30T04:35:59.492Z,85.90
2023-04-30T04:38:28.523Z,85.60
2023-04-30T04:40:57.888Z,85.00
2023-04-30T04:43:30.813Z,84.90
2023-04-30T04:45:59.875Z,84.60
2023-04-30T04:48:28.934Z,84.20
2023-04-30T04:50:57.896Z,83.70
2023-04-30T04:53:26.929Z,83.20
2023-04-30T04:55:56.245Z,83.00
2023-04-30T04:58:25.366Z,82.50
2023-04-30T05:00:54.725Z,82.10
2023-04-30T05:03:24.013Z,81.80
2023-04-30T05:05:53.087Z,81.30
2023-04-30T05:08:22.128Z,80.70
2023-04-30T05:10:51.410Z,80.20
2023-04-30T05:13:20.388Z,80.00
2023-04-30T05:15:52.729Z,79.60
2023-04-30T05:18:22.328Z,79.30
2023-04-30T05:20:51.364Z,78.90
2023-04-30T05:23:20.381Z,78.30
2023-04-30T05:25:54.192Z,78.20
2023-04-30T05:28:22.986Z,78.10
2023-04-30T05:30:52.020Z,76.70
2023-04-30T05:33:21.006Z,77.70
2023-04-30T05:35:50.028Z,77.60
2023-04-30T05:38:19.099Z,78.00
2023-04-30T05:40:48.229Z,76.30
2023-04-30T05:43:17.282Z,76.30
2023-04-30T05:45:46.324Z,75.80
2023-04-30T05:48:15.375Z,75.60
2023-04-30T05:50:44.753Z,75.10
2023-04-30T05:53:14.617Z,74.90
2023-04-30T05:55:43.748Z,74.30
2023-04-30T05:58:12.754Z,74.00
2023-04-30T06:00:41.798Z,72.80
2023-04-30T06:03:11.027Z,74.10
2023-04-30T06:05:42.562Z,72.70
2023-04-30T06:08:11.696Z,73.00
2023-04-30T06:10:40.817Z,72.70
2023-04-30T06:13:09.842Z,72.60
2023-04-30T06:15:38.850Z,72.60
2023-04-30T06:18:07.913Z,72.30
2023-04-30T06:20:36.906Z,71.70
2023-04-30T06:23:06.015Z,71.70
2023-04-30T06:25:35.002Z,70.90
2023-04-30T06:28:03.966Z,70.90
2023-04-30T06:30:34.506Z,70.50
2023-04-30T06:33:03.793Z,71.80
2023-04-30T06:35:32.796Z,71.60
2023-04-30T06:38:01.878Z,72.60
2023-04-30T06:40:31.036Z,72.80
2023-04-30T06:43:00.207Z,72.40
2023-04-30T06:45:30.086Z,72.80
2023-04-30T06:48:00.778Z,73.10
2023-04-30T06:50:29.964Z,73.20
2023-04-30T06:52:59.051Z,73.00
2023-04-30T06:55:29.235Z,72.90
2023-04-30T06:57:59.140Z,72.90
2023-04-30T07:00:28.216Z,73.00
2023-04-30T07:02:58.493Z,72.70
2023-04-30T07:05:28.040Z,72.30
2023-04-30T07:07:57.987Z,72.30
2023-04-30T07:10:27.571Z,71.90
2023-04-30T07:12:56.778Z,71.90
2023-04-30T07:15:25.863Z,71.50
2023-04-30T07:17:54.977Z,70.60
2023-04-30T07:20:24.129Z,70.80
2023-04-30T07:22:53.160Z,70.30
2023-04-30T07:25:22.136Z,70.10
2023-04-30T07:27:52.796Z,69.70
2023-04-30T07:30:22.980Z,69.90
2023-04-30T07:32:53.554Z,69.70
2023-04-30T07:35:22.587Z,69.60
2023-04-30T07:37:51.566Z,69.60
2023-04-30T07:40:29.107Z,69.40
2023-04-30T07:43:05.270Z,69.40
2023-04-30T07:45:36.082Z,69.10
2023-04-30T07:48:05.829Z,69.40
2023-04-30T07:50:35.150Z,69.30
2023-04-30T07:53:04.561Z,69.30
2023-04-30T07:55:33.562Z,69.40
2023-04-30T07:58:04.970Z,69.20
2023-04-30T08:00:33.949Z,69.10
2023-04-30T08:03:03.104Z,69.10
2023-04-30T08:05:32.067Z,68.90
2023-04-30T08:08:01.091Z,68.70
2023-04-30T08:10:30.181Z,68.30
2023-04-30T08:12:59.208Z,68.30
2023-04-30T08:15:30.697Z,67.70
2023-04-30T08:18:02.085Z,68.00
2023-04-30T08:20:31.520Z,67.60
2023-04-30T08:23:00.484Z,66.70
2023-04-30T08:25:31.227Z,66.90
2023-04-30T08:28:01.182Z,66.70
2023-04-30T08:30:30.225Z,66.90
2023-04-30T08:32:59.428Z,67.20
2023-04-30T08:35:30.856Z,66.30
2023-04-30T08:37:59.991Z,65.80
2023-04-30T08:40:49.317Z,65.20
2023-04-30T08:43:19.786Z,66.30
2023-04-30T08:45:48.965Z,65.90
2023-04-30T08:48:18.487Z,66.10
2023-04-30T08:50:47.617Z,66.00
2023-04-30T08:53:18.606Z,65.60
2023-04-30T08:55:48.293Z,65.20
2023-04-30T08:58:17.338Z,65.10
2023-04-30T09:00:46.459Z,65.20
2023-04-30T09:03:15.593Z,64.80
2023-04-30T09:05:44.703Z,65.40
2023-04-30T09:08:20.759Z,65.30
2023-04-30T09:10:49.780Z,64.90
2023-04-30T09:13:18.796Z,65.40
2023-04-30T09:15:53.515Z,65.10
2023-04-30T09:18:23.021Z,65.10
2023-04-30T09:21:04.479Z,64.40
2023-04-30T09:23:33.512Z,64.60
2023-04-30T09:26:02.657Z,64.90
2023-04-30T09:28:31.733Z,64.90
2023-04-30T09:31:00.892Z,64.90
2023-04-30T09:33:31.384Z,64.70
2023-04-30T09:36:10.064Z,65.30
2023-04-30T09:38:39.166Z,65.60
2023-04-30T09:41:09.979Z,65.60
2023-04-30T09:43:47.146Z,65.70
2023-04-30T09:46:16.409Z,65.80
2023-04-30T09:48:47.056Z,65.90
2023-04-30T09:51:16.469Z,65.90
2023-04-30T09:53:46.053Z,65.70
2023-04-30T09:56:17.133Z,65.90
2023-04-30T09:58:48.955Z,65.70
2023-04-30T10:01:19.354Z,66.00
2023-04-30T10:03:49.526Z,65.70
2023-04-30T10:06:20.495Z,65.80
2023-04-30T10:08:52.716Z,65.90
2023-04-30T10:11:23.503Z,65.90
2023-04-30T10:14:03.104Z,65.90
2023-04-30T10:16:50.355Z,65.30
2023-04-30T10:19:26.258Z,65.60
2023-04-30T10:21:55.657Z,65.80
2023-04-30T10:24:24.800Z,65.30
2023-04-30T10:26:54.050Z,65.40
2023-04-30T10:29:23.100Z,65.50
2023-04-30T10:31:53.847Z,65.80
2023-04-30T10:34:44.208Z,66.00
2023-04-30T10:37:34.872Z,66.00
2023-04-30T10:40:06.299Z,66.00
2023-04-30T10:42:37.623Z,66.30
2023-04-30T10:45:06.980Z,66.50
2023-04-30T10:47:37.677Z,66.80
2023-04-30T10:50:10.339Z,67.20
2023-04-30T10:52:40.623Z,67.60
2023-04-30T10:55:12.618Z,68.10
2023-04-30T10:57:47.803Z,68.30
2023-04-30T11:00:28.483Z,68.70
2023-04-30T11:03:05.570Z,68.90
2023-04-30T11:05:39.935Z,69.60
2023-04-30T11:08:13.325Z,69.50
2023-04-30T11:11:02.906Z,69.60
2023-04-30T11:13:40.352Z,70.10
2023-04-30T11:16:09.592Z,69.90
2023-04-30T11:18:48.511Z,70.00
2023-04-30T11:21:17.507Z,70.40
2023-04-30T11:23:52.624Z,70.30
2023-04-30T11:26:22.393Z,70.90
2023-04-30T11:28:55.570Z,70.50
2023-04-30T11:31:34.270Z,70.60
2023-04-30T11:34:04.794Z,70.80
2023-04-30T11:36:35.104Z,70.80
2023-04-30T11:39:09.161Z,71.00
2023-04-30T11:41:43.160Z,71.10
2023-04-30T11:44:44.379Z,71.10
2023-04-30T11:47:16.834Z,72.00
2023-04-30T11:49:45.885Z,71.30
2023-04-30T11:52:22.364Z,71.50
2023-04-30T11:54:51.395Z,71.50
2023-04-30T11:57:20.385Z,71.70
2023-04-30T11:59:50.450Z,71.70
2023-04-30T12:02:19.895Z,72.00
2023-04-30T12:04:49.683Z,72.10
2023-04-30T12:07:19.913Z,72.10
2023-04-30T12:10:00.570Z,72.30
2023-04-30T12:12:31.072Z,72.50
2023-04-30T12:15:00.620Z,72.30
2023-04-30T12:17:34.946Z,72.60
2023-04-30T12:20:06.245Z,72.50
2023-04-30T12:22:35.320Z,72.60
2023-04-30T12:25:14.979Z,72.80
2023-04-30T12:27:47.198Z,72.80
2023-04-30T12:30:16.547Z,72.90
2023-04-30T12:32:47.709Z,73.00
2023-04-30T12:35:22.201Z,73.00
2023-04-30T12:37:56.163Z,73.20
2023-04-30T12:40:29.699Z,73.30
2023-04-30T12:43:09.534Z,73.50
2023-04-30T12:46:04.937Z,73.80
2023-04-30T12:48:48.150Z,74.50
2023-04-30T12:51:21.823Z,74.10
2023-04-30T12:53:50.821Z,73.80
2023-04-30T12:56:20.873Z,74.00
2023-04-30T12:58:50.922Z,74.00
2023-04-30T13:01:26.344Z,74.10
2023-04-30T13:03:55.676Z,74.10
2023-04-30T13:06:25.099Z,74.20
2023-04-30T13:08:58.654Z,74.30
2023-04-30T13:11:28.083Z,74.30
2023-04-30T13:13:57.244Z,76.20
2023-04-30T13:16:26.742Z,74.70
2023-04-30T13:18:56.063Z,74.60
2023-04-30T13:21:26.130Z,74.50
2023-04-30T13:23:56.598Z,74.60
2023-04-30T13:26:27.713Z,74.60
2023-04-30T13:28:56.832Z,74.70
2023-04-30T13:31:25.928Z,74.60
2023-04-30T13:33:56.100Z,74.70
2023-04-30T13:36:25.133Z,74.90
2023-04-30T13:38:54.438Z,74.80
2023-04-30T13:41:23.738Z,74.80
2023-04-30T13:43:52.715Z,74.90
2023-04-30T13:46:21.861Z,74.80
2023-04-30T13:48:53.043Z,75.00
2023-04-30T13:51:22.350Z,74.90
2023-04-30T13:53:51.425Z,74.90
2023-04-30T13:56:20.503Z,74.90
2023-04-30T13:58:49.490Z,74.90
2023-04-30T14:01:18.469Z,74.70
2023-04-30T14:03:48.885Z,75.10
2023-04-30T14:06:18.120Z,75.40
2023-04-30T14:08:47.321Z,75.10
2023-04-30T14:11:16.529Z,75.40
2023-04-30T14:13:45.576Z,75.20
2023-04-30T14:16:14.616Z,75.20
2023-04-30T14:18:43.802Z,75.30
2023-04-30T14:21:12.974Z,75.30
2023-04-30T14:23:42.894Z,75.50
2023-04-30T14:26:11.921Z,75.50
2023-04-30T14:28:41.022Z,75.50
2023-04-30T14:31:10.563Z,75.60
2023-04-30T14:33:39.713Z,75.80
2023-04-30T14:36:09.393Z,75.80
2023-04-30T14:38:38.549Z,75.90
2023-04-30T14:41:07.602Z,76.00
2023-04-30T14:43:36.880Z,76.10
2023-04-30T14:46:06.139Z,76.20
2023-04-30T14:48:35.232Z,76.20
2023-04-30T14:51:04.236Z,76.50
2023-04-30T14:53:33.621Z,76.60
2023-04-30T14:56:02.680Z,76.60
2023-04-30T14:58:31.814Z,77.00
2023-04-30T15:01:01.025Z,77.00
2023-04-30T15:03:30.631Z,77.00
2023-04-30T15:05:59.812Z,77.20
2023-04-30T15:08:28.829Z,77.20
2023-04-30T15:10:58.731Z,77.30
2023-04-30T15:13:27.818Z,77.50
2023-04-30T15:15:57.151Z,77.60
2023-04-30T15:18:26.216Z,77.60
2023-04-30T15:20:55.203Z,77.70
2023-04-30T15:23:24.199Z,78.00
2023-04-30T15:25:53.309Z,77.80
2023-04-30T15:28:23.036Z,77.80
2023-04-30T15:30:53.450Z,78.20
2023-04-30T15:33:22.704Z,78.00
2023-04-30T15:35:51.773Z,78.20
2023-04-30T15:38:20.949Z,78.30
2023-04-30T15:40:50.503Z,78.40
2023-04-30T15:43:19.594Z,78.60
2023-04-30T15:45:49.577Z,78.60
2023-04-30T15:48:18.545Z,78.60
2023-04-30T15:50:47.523Z,78.50
2023-04-30T15:53:17.204Z,78.60
2023-04-30T15:55:47.794Z,78.80
2023-04-30T15:58:17.409Z,78.80
2023-04-30T16:00:46.546Z,78.70
2023-04-30T16:03:15.662Z,78.90
2023-04-30T16:05:45.109Z,79.00
2023-04-30T16:08:14.249Z,79.00
2023-04-30T16:10:44.580Z,79.00
2023-04-30T16:13:13.576Z,79.20
2023-04-30T16:15:42.585Z,79.00
2023-04-30T16:18:11.727Z,79.50
2023-04-30T16:20:43.565Z,79.70
2023-04-30T16:23:12.807Z,79.80
2023-04-30T16:25:42.081Z,79.70
2023-04-30T16:28:11.127Z,79.80
2023-04-30T16:30:40.256Z,79.90
2023-04-30T16:33:10.062Z,80.70
2023-04-30T16:35:39.181Z,80.00
2023-04-30T16:38:08.229Z,80.20
2023-04-30T16:40:37.227Z,80.30
2023-04-30T16:43:07.238Z,80.30
2023-04-30T16:45:36.879Z,80.50
2023-04-30T16:48:06.181Z,80.60
2023-04-30T16:50:35.275Z,80.80
2023-04-30T16:53:04.243Z,81.00
2023-04-30T16:55:33.301Z,81.10
2023-04-30T16:58:02.259Z,81.00
2023-04-30T17:00:31.815Z,81.00
2023-04-30T17:03:00.932Z,81.10
2023-04-30T17:05:29.993Z,81.60
2023-04-30T17:07:59.079Z,81.20
2023-04-30T17:10:28.548Z,81.30
2023-04-30T17:13:05.213Z,81.60
2023-04-30T17:15:34.283Z,81.50
2023-04-30T17:18:03.494Z,81.80
2023-04-30T17:20:33.392Z,81.80
2023-04-30T17:23:03.100Z,82.00
2023-04-30T17:25:33.078Z,82.00
2023-04-30T17:28:02.527Z,82.10
2023-04-30T17:30:31.584Z,82.30
2023-04-30T17:33:01.472Z,82.40
2023-04-30T17:35:30.545Z,82.40
2023-04-30T17:38:00.622Z,82.40
2023-04-30T17:40:29.594Z,82.30
2023-04-30T17:42:58.595Z,83.20
2023-04-30T17:45:28.087Z,82.60
2023-04-30T17:47:57.103Z,82.70
2023-04-30T17:50:26.170Z,82.90
2023-04-30T17:52:55.204Z,83.00
2023-04-30T17:55:24.862Z,82.90
2023-04-30T17:57:53.923Z,83.00
2023-04-30T18:00:22.912Z,83.30
2023-04-30T18:02:52.329Z,83.50
2023-04-30T18:05:21.442Z,83.50
2023-04-30T18:07:50.678Z,83.40
2023-04-30T18:10:20.103Z,83.50
2023-04-30T18:12:49.098Z,83.50
2023-04-30T18:15:18.214Z,84.30
2023-04-30T18:17:47.247Z,83.60
2023-04-30T18:20:16.277Z,83.70
2023-04-30T18:22:45.337Z,83.70
2023-04-30T18:25:15.246Z,83.80
2023-04-30T18:27:44.409Z,83.80
2023-04-30T18:30:13.997Z,84.10
2023-04-30T18:32:44.509Z,84.40
2023-04-30T18:35:13.717Z,84.30
2023-04-30T18:37:42.771Z,84.40
2023-04-30T18:40:12.246Z,84.50
2023-04-30T18:42:41.261Z,84.80
2023-04-30T18:45:11.179Z,84.70
2023-04-30T18:47:40.272Z,84.60
2023-04-30T18:50:16.599Z,84.70
2023-04-30T18:52:46.426Z,84.80
2023-04-30T18:55:15.485Z,84.80
2023-04-30T18:57:44.684Z,84.90
2023-04-30T19:00:15.361Z,85.20
2023-04-30T19:02:44.550Z,85.40
2023-04-30T19:05:13.666Z,85.60
2023-04-30T19:07:42.651Z,85.60
2023-04-30T19:10:12.023Z,85.80
2023-04-30T19:12:41.706Z,86.30
2023-04-30T19:15:12.813Z,85.50
2023-04-30T19:17:42.150Z,85.40
2023-04-30T19:20:12.598Z,85.50
2023-04-30T19:22:42.067Z,85.60
2023-04-30T19:25:11.671Z,85.70
2023-04-30T19:27:41.050Z,85.60
2023-04-30T19:30:10.605Z,85.60
2023-04-30T19:32:39.657Z,86.00
2023-04-30T19:35:09.282Z,86.70
2023-04-30T19:37:38.553Z,87.00
2023-04-30T19:40:14.299Z,86.30
2023-04-30T19:42:43.300Z,86.30
2023-04-30T19:45:12.845Z,86.80
2023-04-30T19:47:42.281Z,86.60
2023-04-30T19:50:11.819Z,86.70
2023-04-30T19:52:40.889Z,86.40
2023-04-30T19:55:10.559Z,86.50
2023-04-30T19:57:39.664Z,86.50
2023-04-30T20:00:09.818Z,86.50
2023-04-30T20:02:38.877Z,86.00
2023-04-30T20:05:08.393Z,85.70
2023-04-30T20:07:37.606Z,85.10
2023-04-30T20:10:07.155Z,85.30
2023-04-30T20:12:36.114Z,85.60
2023-04-30T20:15:05.275Z,84.90
2023-04-30T20:17:35.233Z,84.70
2023-04-30T20:20:04.477Z,84.40
2023-04-30T20:22:33.490Z,84.20
2023-04-30T20:25:03.772Z,84.30
2023-04-30T20:27:32.799Z,84.60
2023-04-30T20:30:02.640Z,84.30
2023-04-30T20:32:32.443Z,84.50
2023-04-30T20:35:01.468Z,84.40
2023-04-30T20:37:30.484Z,84.40
2023-04-30T20:39:59.437Z,84.70
2023-04-30T20:42:28.638Z,84.90
2023-04-30T20:44:57.859Z,85.00
2023-04-30T20:47:26.893Z,84.90
2023-04-30T20:49:56.303Z,85.90
2023-04-30T20:52:25.490Z,85.50
2023-04-30T20:54:54.450Z,85.70
2023-04-30T20:57:23.443Z,85.80
2023-04-30T20:59:52.456Z,85.80
2023-04-30T21:02:21.422Z,85.60
2023-04-30T21:04:50.699Z,85.60
2023-04-30T21:07:19.715Z,85.80
2023-04-30T21:09:49.469Z,85.80
2023-04-30T21:12:18.829Z,85.80
2023-04-30T21:14:48.014Z,85.80
2023-04-30T21:17:17.053Z,85.80
2023-04-30T21:19:46.069Z,86.00
2023-04-30T21:22:15.065Z,86.00
2023-04-30T21:24:44.616Z,86.00
2023-04-30T21:27:13.657Z,86.00
2023-04-30T21:29:48.086Z,86.00
2023-04-30T21:32:18.040Z,86.90
2023-04-30T21:34:47.086Z,86.20
2023-04-30T21:37:17.248Z,86.40
2023-04-30T21:39:46.498Z,86.40
2023-04-30T21:42:15.505Z,86.60
2023-04-30T21:44:44.644Z,86.60
2023-04-30T21:47:13.606Z,86.70
2023-04-30T21:49:43.817Z,86.60
2023-04-30T21:52:12.904Z,86.60
2023-04-30T21:54:42.114Z,86.80
2023-04-30T21:57:11.103Z,86.70
2023-04-30T21:59:40.086Z,86.60
2023-04-30T22:02:20.288Z,86.80
2023-04-30T22:04:52.350Z,86.70
2023-04-30T22:07:21.294Z,86.80
2023-04-30T22:09:50.421Z,86.80
2023-04-30T22:12:22.510Z,86.90
2023-04-30T22:14:55.248Z,86.90
2023-04-30T22:17:24.932Z,86.90
2023-04-30T22:19:54.253Z,87.00
2023-04-30T22:22:23.747Z,87.10
2023-04-30T22:24:53.527Z,87.10
2023-04-30T22:27:22.818Z,87.20
2023-04-30T22:29:52.082Z,87.40
2023-04-30T22:32:21.152Z,87.30
2023-04-30T22:34:51.788Z,87.30
2023-04-30T22:37:20.805Z,87.30
2023-04-30T22:39:49.811Z,87.40
2023-04-30T22:42:18.965Z,87.50
2023-04-30T22:44:48.177Z,87.60
2023-04-30T22:47:17.534Z,87.90
2023-04-30T22:49:46.626Z,87.70
2023-04-30T22:52:15.595Z,87.90
2023-04-30T22:54:44.669Z,87.90
2023-04-30T22:57:13.653Z,87.90
2023-04-30T22:59:42.627Z,88.10
2023-04-30T23:02:11.566Z,88.20
2023-04-30T23:04:40.683Z,88.30
2023-04-30T23:07:10.223Z,88.50
2023-04-30T23:09:39.193Z,88.50
2023-04-30T23:12:08.290Z,88.60
2023-04-30T23:14:37.270Z,88.60
2023-04-30T23:17:06.383Z,88.90
2023-04-30T23:19:35.711Z,89.00
2023-04-30T23:22:04.690Z,89.00
2023-04-30T23:24:37.084Z,89.00
2023-04-30T23:27:06.146Z,89.20
2023-04-30T23:29:36.332Z,88.90
2023-04-30T23:32:05.911Z,89.10
2023-04-30T23:34:35.034Z,89.10
2023-04-30T23:37:04.233Z,89.30
2023-04-30T23:39:33.545Z,89.20
2023-04-30T23:42:03.681Z,89.30
2023-04-30T23:44:32.871Z,88.90
2023-04-30T23:47:04.962Z,88.80
2023-04-30T23:49:33.967Z,88.70
2023-04-30T23:52:03.008Z,88.40
2023-04-30T23:54:32.010Z,88.40
2023-04-30T23:57:01.566Z,88.60
2023-04-30T23:59:30.628Z,88.40
